createdAt,value
2019-05-19T00:02:11.941Z,15.03
2019-05-19T00:05:18.706Z,14.13
2019-05-19T00:08:25.160Z,11.75
2019-05-19T00:11:31.795Z,14.87
2019-05-19T00:14:38.292Z,12.73
2019-05-19T00:17:46.943Z,13.78
2019-05-19T00:20:53.480Z,12.98
2019-05-19T00:24:00.062Z,15.90
2019-05-19T00:27:07.622Z,13.72
2019-05-19T00:30:14.739Z,14.00
2019-05-19T00:33:22.733Z,13.93
2019-05-19T00:36:29.290Z,12.05
2019-05-19T00:39:35.911Z,13.15
2019-05-19T00:42:42.578Z,15.65
2019-05-19T00:45:49.160Z,12.65
2019-05-19T00:48:55.828Z,11.30
2019-05-19T00:52:02.518Z,13.78
2019-05-19T00:55:09.664Z,12.15
2019-05-19T00:58:17.120Z,14.18
2019-05-19T01:01:23.639Z,10.65
2019-05-19T01:04:32.658Z,14.33
2019-05-19T01:07:39.369Z,12.98
2019-05-19T01:10:46.463Z,12.70
2019-05-19T01:13:54.134Z,12.53
2019-05-19T01:17:00.623Z,14.43
2019-05-19T01:20:07.496Z,14.43
2019-05-19T01:23:14.003Z,14.15
2019-05-19T01:26:20.414Z,13.50
2019-05-19T01:29:27.120Z,14.05
2019-05-19T01:32:33.582Z,13.53
2019-05-19T01:35:40.333Z,15.25
2019-05-19T01:38:50.859Z,15.28
2019-05-19T01:41:57.420Z,18.20
2019-05-19T01:45:04.076Z,12.85
2019-05-19T01:48:10.570Z,15.00
2019-05-19T01:51:17.013Z,16.00
2019-05-19T01:54:23.747Z,15.18
2019-05-19T01:57:30.172Z,14.18
2019-05-19T02:00:36.631Z,13.60
2019-05-19T02:03:47.474Z,14.85
2019-05-19T02:06:53.953Z,18.90
2019-05-19T02:10:03.500Z,19.65
2019-05-19T02:13:10.074Z,13.68
2019-05-19T02:16:16.632Z,13.45
2019-05-19T02:19:23.232Z,14.55
2019-05-19T02:22:29.653Z,16.50
2019-05-19T02:25:36.340Z,18.85
2019-05-19T02:28:45.972Z,15.60
2019-05-19T02:31:52.634Z,14.30
2019-05-19T02:34:59.093Z,17.67
2019-05-19T02:38:05.912Z,17.50
2019-05-19T02:41:15.596Z,17.82
2019-05-19T02:44:23.946Z,15.28
2019-05-19T02:47:33.084Z,16.00
2019-05-19T02:50:51.807Z,18.62
2019-05-19T02:53:50.113Z,18.65
2019-05-19T02:56:57.509Z,16.95
2019-05-19T03:00:05.693Z,16.95
2019-05-19T03:03:12.280Z,16.70
2019-05-19T03:06:19.788Z,16.95
2019-05-19T03:09:26.469Z,19.98
2019-05-19T03:12:32.867Z,21.90
2019-05-19T03:15:42.648Z,21.93
2019-05-19T03:18:49.123Z,17.07
2019-05-19T03:21:55.660Z,18.57
2019-05-19T03:25:02.196Z,18.80
2019-05-19T03:28:08.797Z,17.98
2019-05-19T03:31:34.380Z,18.65
2019-05-19T03:34:40.808Z,18.77
2019-05-19T03:37:47.247Z,19.87
2019-05-19T03:40:53.967Z,16.48
2019-05-19T03:44:00.513Z,19.27
2019-05-19T03:47:07.004Z,14.78
2019-05-19T03:50:13.439Z,18.10
2019-05-19T03:53:19.954Z,19.37
2019-05-19T03:56:26.490Z,19.55
2019-05-19T03:59:33.036Z,15.65
2019-05-19T04:02:39.573Z,15.35
2019-05-19T04:05:46.539Z,18.62
2019-05-19T04:08:53.055Z,17.98
2019-05-19T04:11:59.601Z,16.95
2019-05-19T04:15:06.605Z,19.17
2019-05-19T04:18:13.087Z,20.88
2019-05-19T04:21:19.704Z,19.45
2019-05-19T04:24:26.116Z,17.00
2019-05-19T04:27:32.568Z,19.77
2019-05-19T04:30:39.052Z,20.02
2019-05-19T04:33:48.577Z,18.20
2019-05-19T04:36:55.190Z,18.65
2019-05-19T04:40:01.680Z,20.77
2019-05-19T04:43:11.207Z,20.52
2019-05-19T04:46:17.630Z,17.73
2019-05-19T04:49:24.103Z,21.00
2019-05-19T04:52:30.627Z,18.48
2019-05-19T04:55:37.116Z,21.68
2019-05-19T04:58:44.779Z,19.98
2019-05-19T05:01:51.301Z,22.35
2019-05-19T05:04:57.741Z,21.68
2019-05-19T05:08:04.297Z,19.42
2019-05-19T05:11:10.797Z,22.82
2019-05-19T05:14:17.189Z,23.15
2019-05-19T05:17:23.642Z,19.20
2019-05-19T05:20:30.501Z,16.35
2019-05-19T05:23:37.081Z,20.70
2019-05-19T05:26:44.800Z,19.65
2019-05-19T05:29:51.271Z,18.10
2019-05-19T05:32:57.833Z,16.27
2019-05-19T05:36:04.398Z,16.75
2019-05-19T05:39:10.926Z,30.80
2019-05-19T05:42:17.484Z,18.52
2019-05-19T05:45:24.460Z,20.85
2019-05-19T05:48:30.996Z,23.77
2019-05-19T05:51:37.503Z,17.00
2019-05-19T05:54:46.854Z,20.35
2019-05-19T05:57:55.175Z,18.60
2019-05-19T06:01:01.623Z,15.43
2019-05-19T06:04:08.205Z,17.45
2019-05-19T06:07:14.867Z,17.23
2019-05-19T06:10:21.903Z,16.27
2019-05-19T06:13:28.288Z,17.50
2019-05-19T06:16:34.890Z,15.83
2019-05-19T06:19:41.557Z,16.37
2019-05-19T06:22:56.425Z,17.52
2019-05-19T06:25:56.505Z,14.53
2019-05-19T06:29:03.188Z,16.85
2019-05-19T06:32:17.375Z,14.58
2019-05-19T06:35:23.893Z,18.10
2019-05-19T06:38:30.389Z,15.78
2019-05-19T06:41:36.879Z,18.35
2019-05-19T06:44:43.588Z,18.82
2019-05-19T06:47:51.169Z,15.40
2019-05-19T06:50:57.604Z,15.78
2019-05-19T06:54:04.383Z,15.00
2019-05-19T06:57:11.095Z,17.40
2019-05-19T07:00:19.354Z,14.23
2019-05-19T07:03:25.850Z,13.58
2019-05-19T07:06:34.180Z,14.85
2019-05-19T07:09:40.689Z,14.80
2019-05-19T07:12:47.140Z,16.02
2019-05-19T07:15:55.273Z,16.00
2019-05-19T07:19:01.680Z,14.10
2019-05-19T07:22:08.138Z,16.45
2019-05-19T07:25:14.735Z,17.37
2019-05-19T07:28:21.347Z,13.72
2019-05-19T07:31:27.808Z,15.55
2019-05-19T07:34:34.341Z,16.60
2019-05-19T07:37:40.855Z,14.10
2019-05-19T07:40:47.379Z,13.43
2019-05-19T07:43:55.491Z,12.33
2019-05-19T07:47:01.971Z,13.22
2019-05-19T07:50:08.676Z,11.95
2019-05-19T07:53:15.272Z,12.47
2019-05-19T07:56:21.745Z,12.95
2019-05-19T07:59:28.274Z,10.50
2019-05-19T08:02:35.154Z,11.80
2019-05-19T08:05:44.727Z,11.63
2019-05-19T08:08:51.345Z,12.30
2019-05-19T08:11:57.713Z,9.33
2019-05-19T08:15:04.559Z,8.75
2019-05-19T08:18:12.685Z,12.30
2019-05-19T08:21:19.147Z,9.85
2019-05-19T08:24:25.724Z,10.28
2019-05-19T08:27:32.583Z,13.32
2019-05-19T08:30:39.168Z,13.53
2019-05-19T08:33:48.664Z,11.45
2019-05-19T08:36:55.156Z,10.55
2019-05-19T08:40:02.802Z,10.82
2019-05-19T08:43:09.340Z,9.15
2019-05-19T08:46:16.198Z,11.25
2019-05-19T08:49:25.282Z,10.03
2019-05-19T08:52:34.680Z,12.10
2019-05-19T08:55:41.185Z,12.25
2019-05-19T08:58:49.214Z,9.68
2019-05-19T09:01:56.776Z,8.38
2019-05-19T09:05:03.219Z,9.18
2019-05-19T09:08:09.683Z,9.95
2019-05-19T09:11:16.299Z,11.78
2019-05-19T09:14:22.779Z,11.38
2019-05-19T09:17:30.901Z,8.58
2019-05-19T09:20:37.363Z,11.38
2019-05-19T09:23:44.496Z,10.40
2019-05-19T09:26:50.976Z,9.73
2019-05-19T09:30:01.604Z,8.93
2019-05-19T09:33:11.976Z,9.28
2019-05-19T09:36:18.465Z,12.45
2019-05-19T09:39:24.938Z,8.08
2019-05-19T09:42:31.489Z,7.42
2019-05-19T09:45:37.954Z,8.33
2019-05-19T09:48:45.789Z,8.90
2019-05-19T09:51:52.269Z,6.92
2019-05-19T09:54:58.836Z,8.23
2019-05-19T09:58:05.420Z,6.90
2019-05-19T10:01:11.955Z,10.25
2019-05-19T10:04:20.343Z,8.90
2019-05-19T10:07:26.811Z,8.95
2019-05-19T10:11:12.554Z,10.85
2019-05-19T10:14:19.081Z,8.38
2019-05-19T10:17:25.652Z,7.70
2019-05-19T10:20:32.181Z,10.30
2019-05-19T10:23:38.885Z,7.12
2019-05-19T10:26:46.109Z,10.08
2019-05-19T10:29:52.532Z,8.03
2019-05-19T10:32:59.016Z,8.63
2019-05-19T10:36:05.783Z,8.40
2019-05-19T10:39:12.357Z,11.20
2019-05-19T10:42:18.898Z,7.80
2019-05-19T10:45:25.384Z,8.40
2019-05-19T10:48:31.994Z,7.83
2019-05-19T10:51:40.173Z,7.35
2019-05-19T10:54:46.681Z,7.12
2019-05-19T10:57:53.442Z,7.03
2019-05-19T11:00:59.926Z,5.25
2019-05-19T11:04:06.507Z,5.50
2019-05-19T11:07:13.225Z,11.60
2019-05-19T11:10:20.915Z,7.58
2019-05-19T11:13:27.413Z,7.42
2019-05-19T11:16:33.951Z,7.87
2019-05-19T11:19:40.411Z,6.85
2019-05-19T11:22:47.069Z,7.42
2019-05-19T11:25:53.410Z,8.93
2019-05-19T11:28:59.851Z,6.97
2019-05-19T11:32:06.408Z,6.95
2019-05-19T11:35:12.889Z,7.20
2019-05-19T11:38:19.170Z,7.33
2019-05-19T11:41:25.351Z,7.00
2019-05-19T11:44:31.584Z,6.83
2019-05-19T11:47:37.974Z,5.80
2019-05-19T11:50:45.065Z,6.45
2019-05-19T11:53:51.627Z,5.75
2019-05-19T11:56:58.199Z,5.33
2019-05-19T12:00:07.361Z,7.23
2019-05-19T12:03:13.573Z,4.00
2019-05-19T12:06:20.277Z,8.10
2019-05-19T12:09:26.783Z,8.05
2019-05-19T12:12:33.273Z,6.50
2019-05-19T12:15:39.391Z,7.10
2019-05-19T12:18:47.049Z,7.40
2019-05-19T12:21:53.536Z,4.67
2019-05-19T12:25:01.056Z,7.15
2019-05-19T12:28:07.747Z,6.15
2019-05-19T12:31:16.835Z,6.45
2019-05-19T12:34:22.116Z,6.47
2019-05-19T12:37:28.643Z,6.47
2019-05-19T12:40:34.804Z,6.20
2019-05-19T12:43:40.999Z,6.37
2019-05-19T12:46:48.841Z,6.50
2019-05-19T12:49:55.127Z,7.33
2019-05-19T12:53:01.366Z,5.50
2019-05-19T12:56:07.561Z,7.23
2019-05-19T12:59:14.775Z,6.17
2019-05-19T13:02:21.199Z,6.40
2019-05-19T13:05:28.898Z,7.83
2019-05-19T13:08:35.409Z,4.62
2019-05-19T13:11:43.887Z,7.65
2019-05-19T13:14:50.080Z,7.95
2019-05-19T13:17:56.481Z,6.45
2019-05-19T13:21:03.013Z,7.22
2019-05-19T13:24:11.102Z,7.20
2019-05-19T13:27:17.578Z,6.03
2019-05-19T13:30:24.236Z,6.83
2019-05-19T13:33:30.697Z,7.80
2019-05-19T13:36:40.203Z,6.58
2019-05-19T13:39:47.365Z,5.30
2019-05-19T13:42:53.513Z,9.60
2019-05-19T13:46:00.294Z,6.70
2019-05-19T13:49:06.853Z,6.80
2019-05-19T13:52:13.206Z,7.70
2019-05-19T13:55:19.844Z,6.43
2019-05-19T13:58:26.039Z,7.40
2019-05-19T14:01:32.250Z,5.97
2019-05-19T14:04:38.747Z,5.30
2019-05-19T14:07:45.606Z,6.33
2019-05-19T14:10:55.070Z,5.90
2019-05-19T14:14:01.309Z,5.17
2019-05-19T14:17:07.654Z,6.40
2019-05-19T14:20:14.238Z,6.60
2019-05-19T14:23:20.513Z,6.10
2019-05-19T14:26:26.787Z,6.80
2019-05-19T14:29:35.768Z,8.00
2019-05-19T14:32:44.052Z,7.23
2019-05-19T14:35:50.228Z,8.30
2019-05-19T14:39:05.059Z,6.43
2019-05-19T14:42:13.647Z,8.50
2019-05-19T14:45:20.937Z,8.53
2019-05-19T14:48:27.041Z,11.73
2019-05-19T14:51:33.455Z,6.00
2019-05-19T14:54:39.728Z,4.50
2019-05-19T14:57:47.000Z,6.90
2019-05-19T15:00:53.189Z,9.30
2019-05-19T15:03:59.495Z,8.30
2019-05-19T15:07:06.845Z,8.57
2019-05-19T15:10:13.627Z,7.17
2019-05-19T15:13:20.120Z,9.17
2019-05-19T15:16:26.358Z,7.93
2019-05-19T15:19:32.451Z,7.70
2019-05-19T15:22:38.716Z,7.37
2019-05-19T15:25:45.542Z,7.80
2019-05-19T15:28:51.710Z,6.77
2019-05-19T15:32:00.028Z,8.27
2019-05-19T15:35:07.010Z,8.23
2019-05-19T15:39:26.353Z,8.07
2019-05-19T15:42:32.513Z,8.30
2019-05-19T15:45:42.920Z,6.80
2019-05-19T15:48:49.170Z,8.70
2019-05-19T15:52:02.980Z,8.63
2019-05-19T15:55:03.750Z,9.30
2019-05-19T15:58:16.487Z,8.83
2019-05-19T16:01:18.045Z,7.53
2019-05-19T16:04:25.423Z,8.10
2019-05-19T16:07:31.861Z,7.37
2019-05-19T16:10:38.143Z,8.70
2019-05-19T16:13:44.879Z,9.20
2019-05-19T16:16:51.582Z,7.60
2019-05-19T16:19:57.692Z,7.80
2019-05-19T16:23:04.351Z,9.93
2019-05-19T16:26:10.684Z,8.47
2019-05-19T16:29:16.963Z,10.23
2019-05-19T16:32:23.413Z,8.98
2019-05-19T16:35:29.847Z,9.83
2019-05-19T16:38:36.353Z,10.65
2019-05-19T16:41:46.051Z,8.78
2019-05-19T16:44:52.303Z,10.13
2019-05-19T16:47:58.558Z,7.97
2019-05-19T16:51:04.908Z,7.67
2019-05-19T16:54:15.760Z,10.17
2019-05-19T16:57:22.045Z,10.13
2019-05-19T17:00:29.858Z,9.63
2019-05-19T17:03:36.098Z,8.80
2019-05-19T17:06:43.144Z,9.33
2019-05-19T17:09:50.645Z,8.35
2019-05-19T17:12:57.495Z,9.33
2019-05-19T17:16:04.104Z,10.70
2019-05-19T17:19:10.587Z,9.80
2019-05-19T17:22:17.076Z,7.90
2019-05-19T17:25:23.768Z,8.53
2019-05-19T17:28:30.424Z,7.40
2019-05-19T17:31:36.999Z,8.55
2019-05-19T17:34:45.844Z,8.20
2019-05-19T17:37:53.695Z,8.80
2019-05-19T17:41:00.194Z,7.92
2019-05-19T17:44:06.817Z,8.93
2019-05-19T17:47:13.334Z,8.43
2019-05-19T17:50:34.796Z,8.78
2019-05-19T17:53:44.790Z,9.88
2019-05-19T17:56:53.416Z,8.83
2019-05-19T18:00:02.259Z,8.63
2019-05-19T18:03:10.674Z,8.48
2019-05-19T18:06:17.349Z,8.40
2019-05-19T18:09:24.049Z,8.28
2019-05-19T18:12:31.709Z,6.92
2019-05-19T18:15:39.092Z,8.28
2019-05-19T18:18:47.848Z,8.83
2019-05-19T18:21:57.861Z,8.25
2019-05-19T18:25:04.608Z,9.00
2019-05-19T18:28:11.065Z,8.48
2019-05-19T18:31:17.538Z,8.70
2019-05-19T18:34:23.959Z,11.88
2019-05-19T18:37:32.396Z,8.65
2019-05-19T18:40:39.028Z,8.73
2019-05-19T18:43:46.888Z,7.25
2019-05-19T18:46:53.409Z,9.10
2019-05-19T18:51:09.482Z,8.20
2019-05-19T18:54:15.973Z,7.72
2019-05-19T18:57:22.430Z,8.93
2019-05-19T19:00:40.255Z,11.45
2019-05-19T19:03:47.230Z,9.40
2019-05-19T19:06:54.096Z,8.90
2019-05-19T19:10:00.497Z,9.05
2019-05-19T19:13:08.135Z,9.20
2019-05-19T19:16:14.735Z,10.70
2019-05-19T19:19:21.343Z,9.10
2019-05-19T19:22:28.045Z,9.48
2019-05-19T19:25:37.567Z,8.20
2019-05-19T19:28:46.332Z,6.70
2019-05-19T19:31:53.103Z,8.40
2019-05-19T19:34:59.490Z,9.07
2019-05-19T19:38:06.846Z,7.95
2019-05-19T19:41:13.797Z,7.72
2019-05-19T19:44:20.953Z,10.58
2019-05-19T19:47:27.950Z,10.10
2019-05-19T19:50:37.114Z,8.63
2019-05-19T19:53:45.266Z,10.93
2019-05-19T19:56:52.142Z,9.05
2019-05-19T19:59:59.376Z,8.83
2019-05-19T20:03:06.805Z,8.20
2019-05-19T20:06:16.358Z,8.53
2019-05-19T20:09:23.212Z,7.67
2019-05-19T20:12:31.975Z,6.78
2019-05-19T20:15:42.027Z,7.20
2019-05-19T20:18:48.689Z,8.23
2019-05-19T20:21:55.362Z,6.37
2019-05-19T20:25:01.764Z,7.60
2019-05-19T20:28:08.407Z,8.03
2019-05-19T20:31:14.975Z,7.55
2019-05-19T20:34:21.478Z,7.03
2019-05-19T20:37:28.104Z,6.03
2019-05-19T20:40:34.616Z,6.72
2019-05-19T20:43:41.149Z,6.50
2019-05-19T20:46:47.721Z,5.87
2019-05-19T20:49:56.301Z,6.72
2019-05-19T20:53:02.893Z,7.65
2019-05-19T20:56:09.367Z,6.75
2019-05-19T20:59:19.019Z,7.65
2019-05-19T21:02:25.644Z,7.55
2019-05-19T21:05:32.271Z,7.15
2019-05-19T21:08:39.066Z,5.70
2019-05-19T21:11:47.568Z,9.93
2019-05-19T21:14:54.140Z,7.90
2019-05-19T21:18:01.099Z,8.25
2019-05-19T21:21:07.669Z,6.50
2019-05-19T21:24:14.197Z,7.83
2019-05-19T21:27:37.482Z,8.18
2019-05-19T21:30:47.656Z,9.88
2019-05-19T21:33:54.150Z,10.38
2019-05-19T21:37:00.749Z,10.43
2019-05-19T21:40:08.539Z,9.68
2019-05-19T21:43:15.083Z,7.33
2019-05-19T21:46:21.641Z,8.70
2019-05-19T21:49:28.119Z,6.78
2019-05-19T21:52:34.671Z,9.55
2019-05-19T21:55:41.100Z,10.45
2019-05-19T21:58:51.324Z,8.55
2019-05-19T22:01:57.789Z,9.30
2019-05-19T22:05:04.603Z,9.50
2019-05-19T22:08:15.164Z,8.55
2019-05-19T22:11:21.594Z,9.13
2019-05-19T22:14:28.085Z,8.55
2019-05-19T22:17:34.729Z,10.70
2019-05-19T22:20:43.414Z,11.05
2019-05-19T22:23:50.971Z,7.97
2019-05-19T22:26:57.483Z,9.55
2019-05-19T22:30:05.909Z,10.45
2019-05-19T22:33:12.440Z,12.50
2019-05-19T22:36:20.183Z,8.30
2019-05-19T22:39:26.589Z,9.93
2019-05-19T22:42:33.185Z,11.08
2019-05-19T22:45:39.928Z,7.87
2019-05-19T22:48:46.529Z,9.03
2019-05-19T22:51:53.144Z,10.53
2019-05-19T22:55:02.093Z,11.48
2019-05-19T22:58:08.685Z,13.60
2019-05-19T23:01:16.917Z,11.18
2019-05-19T23:04:23.925Z,11.80
2019-05-19T23:07:30.502Z,11.28
2019-05-19T23:10:39.547Z,11.80
2019-05-19T23:13:47.125Z,12.50
2019-05-19T23:16:55.732Z,12.53
2019-05-19T23:20:02.222Z,10.85
2019-05-19T23:23:10.606Z,10.63
2019-05-19T23:26:17.132Z,10.08
2019-05-19T23:29:23.670Z,9.75
2019-05-19T23:32:31.701Z,13.83
2019-05-19T23:35:38.154Z,22.42
2019-05-19T23:38:46.810Z,10.82
2019-05-19T23:41:53.572Z,11.50
2019-05-19T23:45:00.107Z,10.28
2019-05-19T23:48:08.732Z,9.30
2019-05-19T23:51:15.223Z,9.33
2019-05-19T23:54:21.949Z,10.65
2019-05-19T23:57:28.609Z,10.30
